Carnarvon, Australia
Current Conditions -  °F | °C
As of 6:00 AM on Thursday 29 Jan 2015 (Local Time) from YCAR Reporting Station
Broken Clouds Broken Clouds  
Wind Chill: 75°   Ceiling: 1200
Heat Index: 75°   Visibility: 6mi
Dew Point: 70°   Wind: 18mph
Humidity: 83%   Direction: 190°S
Pressure: 29.71"   Gusts: NA
Location:  24.88°S, 113.66°E
Report Text: YCAR 282200Z 19016KT 9999 BKN012 24/21 Q1006
Loading
Personal Weather Stations






























Interactive Weather Map New forecast layout! Learn more

10-Day Weather Forecast

Advertisements
Track Severe Weather on mobile